sensor_id;sensor_type;location;lat;lon;timestamp;pressure;altitude;pressure_sealevel;temperature;humidity
42647;BME280;31319;53.678;-6.254;2023-02-17T07:10:12;101322.41;;;18.46;100.00
42647;BME280;31319;53.678;-6.254;2023-02-17T07:12:38;101330.13;;;18.53;100.00
42647;BME280;31319;53.678;-6.254;2023-02-17T07:15:04;101325.19;;;18.46;100.00
42647;BME280;31319;53.678;-6.254;2023-02-17T07:17:30;101347.78;;;18.48;100.00
42647;BME280;31319;53.678;-6.254;2023-02-17T07:19:56;101351.75;;;18.63;100.00
42647;BME280;31319;53.678;-6.254;2023-02-17T07:22:21;101368.22;;;18.72;100.00
42647;BME280;31319;53.678;-6.254;2023-02-17T07:24:49;101373.06;;;18.75;100.00
42647;BME280;31319;53.678;-6.254;2023-02-17T07:27:15;101385.19;;;18.70;100.00
42647;BME280;31319;53.678;-6.254;2023-02-17T07:29:41;101390.41;;;18.88;100.00
42647;BME280;31319;53.678;-6.254;2023-02-17T07:32:06;101411.75;;;18.87;100.00
42647;BME280;31319;53.678;-6.254;2023-02-17T07:34:32;101412.94;;;18.46;100.00
42647;BME280;31319;53.678;-6.254;2023-02-17T07:36:57;101425.56;;;18.71;100.00
42647;BME280;31319;53.678;-6.254;2023-02-17T07:39:23;101415.31;;;18.60;100.00
42647;BME280;31319;53.678;-6.254;2023-02-17T07:41:48;101438.72;;;18.74;100.00
42647;BME280;31319;53.678;-6.254;2023-02-17T07:44:14;101443.53;;;18.77;100.00
42647;BME280;31319;53.678;-6.254;2023-02-17T07:46:39;101453.56;;;18.82;100.00
42647;BME280;31319;53.678;-6.254;2023-02-17T07:49:05;101455.47;;;18.94;100.00
42647;BME280;31319;53.678;-6.254;2023-02-17T07:51:32;101463.22;;;18.88;100.00
42647;BME280;31319;53.678;-6.254;2023-02-17T07:53:59;101470.22;;;18.70;100.00
42647;BME280;31319;53.678;-6.254;2023-02-17T07:56:25;101465.19;;;18.88;100.00
42647;BME280;31319;53.678;-6.254;2023-02-17T07:58:53;101462.63;;;18.95;100.00
42647;BME280;31319;53.678;-6.254;2023-02-17T08:01:21;101480.84;;;18.96;100.00
42647;BME280;31319;53.678;-6.254;2023-02-17T08:03:48;101484.72;;;19.07;100.00
42647;BME280;31319;53.678;-6.254;2023-02-17T08:06:17;101481.25;;;18.82;100.00
42647;BME280;31319;53.678;-6.254;2023-02-17T08:08:44;101485.13;;;18.93;100.00
42647;BME280;31319;53.678;-6.254;2023-02-17T08:11:28;101509.09;;;19.01;100.00
42647;BME280;31319;53.678;-6.254;2023-02-17T08:14:13;101518.13;;;18.98;100.00
42647;BME280;31319;53.678;-6.254;2023-02-17T08:16:39;101509.34;;;18.96;100.00
42647;BME280;31319;53.678;-6.254;2023-02-17T08:19:05;101522.44;;;18.83;100.00
42647;BME280;31319;53.678;-6.254;2023-02-17T08:21:31;101505.16;;;19.02;100.00
42647;BME280;31319;53.678;-6.254;2023-02-17T08:23:57;101521.97;;;18.57;100.00
42647;BME280;31319;53.678;-6.254;2023-02-17T08:26:23;101527.38;;;18.90;100.00
42647;BME280;31319;53.678;-6.254;2023-02-17T08:28:49;101526.97;;;19.04;100.00
42647;BME280;31319;53.678;-6.254;2023-02-17T08:31:22;101530.53;;;18.52;100.00
42647;BME280;31319;53.678;-6.254;2023-02-17T08:33:49;101540.22;;;18.21;100.00
42647;BME280;31319;53.678;-6.254;2023-02-17T08:36:16;101548.03;;;18.44;100.00
42647;BME280;31319;53.678;-6.254;2023-02-17T08:38:42;101544.38;;;18.40;100.00
42647;BME280;31319;53.678;-6.254;2023-02-17T08:41:21;101553.34;;;18.12;100.00
42647;BME280;31319;53.678;-6.254;2023-02-17T08:43:47;101554.25;;;18.28;100.00
42647;BME280;31319;53.678;-6.254;2023-02-17T08:46:13;101571.47;;;18.46;100.00
42647;BME280;31319;53.678;-6.254;2023-02-17T08:48:40;101585.75;;;18.36;100.00
42647;BME280;31319;53.678;-6.254;2023-02-17T08:51:06;101607.44;;;18.46;100.00
42647;BME280;31319;53.678;-6.254;2023-02-17T08:53:33;101619.09;;;18.52;100.00
42647;BME280;31319;53.678;-6.254;2023-02-17T08:55:59;101636.66;;;18.68;100.00
42647;BME280;31319;53.678;-6.254;2023-02-17T08:58:24;101634.53;;;18.65;100.00
42647;BME280;31319;53.678;-6.254;2023-02-17T09:00:50;101645.03;;;18.60;100.00
42647;BME280;31319;53.678;-6.254;2023-02-17T09:03:16;101647.66;;;18.56;100.00
42647;BME280;31319;53.678;-6.254;2023-02-17T09:05:42;101647.91;;;18.39;100.00
42647;BME280;31319;53.678;-6.254;2023-02-17T09:08:08;101671.66;;;18.40;100.00
42647;BME280;31319;53.678;-6.254;2023-02-17T09:10:36;101671.09;;;18.13;100.00
42647;BME280;31319;53.678;-6.254;2023-02-17T09:13:01;101681.50;;;18.16;100.00
42647;BME280;31319;53.678;-6.254;2023-02-17T09:15:27;101689.25;;;18.23;100.00
42647;BME280;31319;53.678;-6.254;2023-02-17T09:17:53;101697.00;;;18.29;100.00
42647;BME280;31319;53.678;-6.254;2023-02-17T09:20:19;101692.84;;;18.36;100.00
42647;BME280;31319;53.678;-6.254;2023-02-17T09:22:44;101698.59;;;18.30;100.00
42647;BME280;31319;53.678;-6.254;2023-02-17T09:25:10;101701.13;;;18.36;100.00
42647;BME280;31319;53.678;-6.254;2023-02-17T09:27:35;101692.38;;;18.34;100.00
42647;BME280;31319;53.678;-6.254;2023-02-17T09:30:01;101713.34;;;18.35;100.00
42647;BME280;31319;53.678;-6.254;2023-02-17T09:32:27;101719.59;;;18.44;100.00
42647;BME280;31319;53.678;-6.254;2023-02-17T09:34:52;101728.59;;;18.41;100.00
42647;BME280;31319;53.678;-6.254;2023-02-17T09:37:19;101722.06;;;18.57;100.00
42647;BME280;31319;53.678;-6.254;2023-02-17T09:39:46;101723.44;;;18.64;100.00
42647;BME280;31319;53.678;-6.254;2023-02-17T09:42:21;101737.91;;;18.69;100.00
42647;BME280;31319;53.678;-6.254;2023-02-17T09:44:50;101745.56;;;18.97;100.00
42647;BME280;31319;53.678;-6.254;2023-02-17T09:47:21;101756.88;;;18.58;100.00
42647;BME280;31319;53.678;-6.254;2023-02-17T09:50:00;101762.59;;;18.41;100.00
42647;BME280;31319;53.678;-6.254;2023-02-17T09:52:40;101760.78;;;18.45;100.00
42647;BME280;31319;53.678;-6.254;2023-02-17T09:55:14;101766.88;;;18.51;100.00
42647;BME280;31319;53.678;-6.254;2023-02-17T09:58:04;101770.69;;;18.67;100.00
42647;BME280;31319;53.678;-6.254;2023-02-17T10:00:39;101778.97;;;18.67;100.00
42647;BME280;31319;53.678;-6.254;2023-02-17T10:03:11;101795.50;;;18.76;100.00
42647;BME280;31319;53.678;-6.254;2023-02-17T10:05:44;101810.41;;;18.63;100.00
42647;BME280;31319;53.678;-6.254;2023-02-17T10:08:20;101815.44;;;18.69;100.00
42647;BME280;31319;53.678;-6.254;2023-02-17T10:10:52;101821.66;;;18.78;100.00
42647;BME280;31319;53.678;-6.254;2023-02-17T10:13:21;101830.44;;;18.68;100.00
42647;BME280;31319;53.678;-6.254;2023-02-17T10:15:51;101828.97;;;18.62;100.00
42647;BME280;31319;53.678;-6.254;2023-02-17T10:18:36;101828.47;;;18.69;100.00
42647;BME280;31319;53.678;-6.254;2023-02-17T10:21:09;101831.38;;;18.51;100.00
42647;BME280;31319;53.678;-6.254;2023-02-17T10:23:36;101826.41;;;18.57;100.00
42647;BME280;31319;53.678;-6.254;2023-02-17T10:29:34;101839.06;;;18.67;100.00
42647;BME280;31319;53.678;-6.254;2023-02-17T10:39:54;101835.75;;;18.85;100.00
42647;BME280;31319;53.678;-6.254;2023-02-17T10:44:52;101827.38;;;19.06;100.00
42647;BME280;31319;53.678;-6.254;2023-02-17T10:47:20;101853.22;;;19.10;100.00
42647;BME280;31319;53.678;-6.254;2023-02-17T10:49:50;101873.22;;;19.16;100.00
42647;BME280;31319;53.678;-6.254;2023-02-17T10:52:37;101871.38;;;19.32;100.00
42647;BME280;31319;53.678;-6.254;2023-02-17T10:55:24;101880.69;;;19.03;100.00
42647;BME280;31319;53.678;-6.254;2023-02-17T10:58:00;101880.25;;;19.13;100.00
42647;BME280;31319;53.678;-6.254;2023-02-17T11:00:30;101883.03;;;19.26;99.07
42647;BME280;31319;53.678;-6.254;2023-02-17T11:02:55;101883.59;;;19.19;99.60
42647;BME280;31319;53.678;-6.254;2023-02-17T11:05:32;101902.31;;;19.22;97.36
42647;BME280;31319;53.678;-6.254;2023-02-17T11:08:06;101897.34;;;19.16;96.25
42647;BME280;31319;53.678;-6.254;2023-02-17T11:10:35;101898.25;;;19.07;93.08
42647;BME280;31319;53.678;-6.254;2023-02-17T11:13:02;101907.16;;;19.13;96.35
42647;BME280;31319;53.678;-6.254;2023-02-17T11:15:33;101899.19;;;19.24;94.72
42647;BME280;31319;53.678;-6.254;2023-02-17T11:18:08;101912.50;;;19.30;96.34
42647;BME280;31319;53.678;-6.254;2023-02-17T11:20:35;101915.38;;;19.34;94.39
42647;BME280;31319;53.678;-6.254;2023-02-17T11:23:21;101926.84;;;19.45;90.16
42647;BME280;31319;53.678;-6.254;2023-02-17T11:26:08;101922.03;;;19.66;89.18
42647;BME280;31319;53.678;-6.254;2023-02-17T11:28:34;101922.91;;;19.46;90.57
42647;BME280;31319;53.678;-6.254;2023-02-17T11:31:00;101928.22;;;19.38;90.90
42647;BME280;31319;53.678;-6.254;2023-02-17T11:33:37;101914.13;;;19.56;87.57
42647;BME280;31319;53.678;-6.254;2023-02-17T11:36:06;101922.97;;;19.58;87.66
42647;BME280;31319;53.678;-6.254;2023-02-17T11:41:05;101934.78;;;19.34;92.99
42647;BME280;31319;53.678;-6.254;2023-02-17T11:43:33;101932.84;;;19.47;91.79
42647;BME280;31319;53.678;-6.254;2023-02-17T11:52:11;101937.47;;;19.55;91.49
42647;BME280;31319;53.678;-6.254;2023-02-17T12:00:57;101938.09;;;19.60;99.30
42647;BME280;31319;53.678;-6.254;2023-02-17T12:03:53;101945.53;;;19.48;100.00
42647;BME280;31319;53.678;-6.254;2023-02-17T12:06:36;101939.47;;;19.79;100.00
42647;BME280;31319;53.678;-6.254;2023-02-17T12:12:13;101939.72;;;19.74;100.00
42647;BME280;31319;53.678;-6.254;2023-02-17T12:24:06;101930.56;;;19.98;100.00
42647;BME280;31319;53.678;-6.254;2023-02-17T12:26:48;101922.47;;;20.05;100.00
42647;BME280;31319;53.678;-6.254;2023-02-17T12:29:38;101930.81;;;20.05;100.00
42647;BME280;31319;53.678;-6.254;2023-02-17T12:32:32;101918.75;;;20.13;100.00
42647;BME280;31319;53.678;-6.254;2023-02-17T12:35:09;101926.19;;;19.84;100.00
42647;BME280;31319;53.678;-6.254;2023-02-17T12:40:32;101922.03;;;19.78;100.00
42647;BME280;31319;53.678;-6.254;2023-02-17T12:43:31;101923.41;;;19.72;100.00
42647;BME280;31319;53.678;-6.254;2023-02-17T12:46:03;101921.47;;;19.73;100.00
42647;BME280;31319;53.678;-6.254;2023-02-17T12:49:39;101927.91;;;19.64;100.00
42647;BME280;31319;53.678;-6.254;2023-02-17T12:52:16;101927.53;;;19.54;98.93
42647;BME280;31319;53.678;-6.254;2023-02-17T13:00:34;101915.63;;;19.53;91.52
42647;BME280;31319;53.678;-6.254;2023-02-17T13:03:01;101924.81;;;19.66;90.30
42647;BME280;31319;53.678;-6.254;2023-02-17T13:05:42;101925.13;;;19.64;90.83
42647;BME280;31319;53.678;-6.254;2023-02-17T13:08:22;101917.16;;;19.51;92.58
42647;BME280;31319;53.678;-6.254;2023-02-17T13:11:04;101916.66;;;19.49;93.45
42647;BME280;31319;53.678;-6.254;2023-02-17T13:13:32;101924.16;;;19.48;93.88
42647;BME280;31319;53.678;-6.254;2023-02-17T13:16:06;101923.66;;;19.67;92.78
42647;BME280;31319;53.678;-6.254;2023-02-17T13:18:37;101920.19;;;19.70;92.94
42647;BME280;31319;53.678;-6.254;2023-02-17T13:21:25;101924.31;;;19.64;95.64
42647;BME280;31319;53.678;-6.254;2023-02-17T13:24:03;101917.19;;;19.75;95.45
42647;BME280;31319;53.678;-6.254;2023-02-17T13:26:38;101917.16;;;19.87;89.78
42647;BME280;31319;53.678;-6.254;2023-02-17T13:29:11;101912.91;;;19.65;92.14
42647;BME280;31319;53.678;-6.254;2023-02-17T13:31:47;101917.47;;;19.49;95.25
42647;BME280;31319;53.678;-6.254;2023-02-17T13:34:34;101907.78;;;19.55;93.16
42647;BME280;31319;53.678;-6.254;2023-02-17T13:40:25;101884.47;;;19.68;94.74
42647;BME280;31319;53.678;-6.254;2023-02-17T13:42:55;101889.00;;;19.61;97.17
42647;BME280;31319;53.678;-6.254;2023-02-17T13:45:23;101889.09;;;19.64;98.59
42647;BME280;31319;53.678;-6.254;2023-02-17T13:47:52;101887.56;;;19.55;100.00
42647;BME280;31319;53.678;-6.254;2023-02-17T13:50:34;101896.59;;;19.52;100.00
42647;BME280;31319;53.678;-6.254;2023-02-17T13:53:02;101882.38;;;19.53;100.00
42647;BME280;31319;53.678;-6.254;2023-02-17T13:55:28;101876.63;;;19.71;100.00
42647;BME280;31319;53.678;-6.254;2023-02-17T13:57:57;101881.25;;;19.66;100.00
42647;BME280;31319;53.678;-6.254;2023-02-17T14:02:54;101876.50;;;19.91;100.00
42647;BME280;31319;53.678;-6.254;2023-02-17T14:08:19;101877.16;;;20.13;95.26
42647;BME280;31319;53.678;-6.254;2023-02-17T14:10:47;101876.34;;;20.12;96.70
42647;BME280;31319;53.678;-6.254;2023-02-17T14:13:13;101873.44;;;20.21;94.74
42647;BME280;31319;53.678;-6.254;2023-02-17T14:15:53;101873.41;;;20.33;94.44
42647;BME280;31319;53.678;-6.254;2023-02-17T14:18:45;101866.56;;;20.31;95.38
42647;BME280;31319;53.678;-6.254;2023-02-17T14:21:23;101866.00;;;20.25;91.11
42647;BME280;31319;53.678;-6.254;2023-02-17T14:23:52;101867.22;;;20.40;90.28
42647;BME280;31319;53.678;-6.254;2023-02-17T14:28:58;101856.88;;;20.24;92.11
42647;BME280;31319;53.678;-6.254;2023-02-17T14:31:24;101855.38;;;20.27;92.01
42647;BME280;31319;53.678;-6.254;2023-02-17T14:34:00;101861.41;;;20.17;93.39
42647;BME280;31319;53.678;-6.254;2023-02-17T14:36:35;101860.13;;;20.27;93.09
42647;BME280;31319;53.678;-6.254;2023-02-17T14:39:03;101851.47;;;20.16;96.11
42647;BME280;31319;53.678;-6.254;2023-02-17T14:41:29;101850.03;;;20.34;93.21
42647;BME280;31319;53.678;-6.254;2023-02-17T14:43:55;101846.69;;;20.29;93.94
42647;BME280;31319;53.678;-6.254;2023-02-17T14:46:21;101843.47;;;20.27;95.63
42647;BME280;31319;53.678;-6.254;2023-02-17T14:48:50;101856.59;;;20.42;92.64
42647;BME280;31319;53.678;-6.254;2023-02-17T14:51:19;101842.09;;;20.20;96.38
42647;BME280;31319;53.678;-6.254;2023-02-17T14:53:45;101845.38;;;20.10;99.48
42647;BME280;31319;53.678;-6.254;2023-02-17T14:56:35;101838.19;;;20.09;98.82
42647;BME280;31319;53.678;-6.254;2023-02-17T14:59:03;101841.03;;;20.25;97.90
42647;BME280;31319;53.678;-6.254;2023-02-17T15:01:29;101830.47;;;20.31;98.70
42647;BME280;31319;53.678;-6.254;2023-02-17T15:03:55;101825.69;;;20.43;97.02
42647;BME280;31319;53.678;-6.254;2023-02-17T15:06:25;101828.94;;;20.45;97.54
42647;BME280;31319;53.678;-6.254;2023-02-17T15:08:52;101832.66;;;20.49;97.37
42647;BME280;31319;53.678;-6.254;2023-02-17T15:11:31;101830.06;;;20.57;97.58
42647;BME280;31319;53.678;-6.254;2023-02-17T15:13:59;101829.16;;;20.53;98.82
42647;BME280;31319;53.678;-6.254;2023-02-17T15:16:24;101820.56;;;20.58;98.59
42647;BME280;31319;53.678;-6.254;2023-02-17T15:18:50;101820.97;;;20.72;96.86
42647;BME280;31319;53.678;-6.254;2023-02-17T15:23:53;101796.78;;;20.88;93.11
42647;BME280;31319;53.678;-6.254;2023-02-17T15:26:20;101794.63;;;20.82;93.94
42647;BME280;31319;53.678;-6.254;2023-02-17T15:28:46;101794.78;;;20.57;96.21
42647;BME280;31319;53.678;-6.254;2023-02-17T15:31:13;101797.13;;;20.71;93.90
42647;BME280;31319;53.678;-6.254;2023-02-17T15:33:42;101785.31;;;20.74;93.94
42647;BME280;31319;53.678;-6.254;2023-02-17T15:36:15;101792.47;;;20.75;93.22
42647;BME280;31319;53.678;-6.254;2023-02-17T15:38:41;101779.72;;;20.58;98.45
42647;BME280;31319;53.678;-6.254;2023-02-17T15:41:20;101774.91;;;20.71;96.54
42647;BME280;31319;53.678;-6.254;2023-02-17T15:43:47;101762.91;;;20.67;97.39
42647;BME280;31319;53.678;-6.254;2023-02-17T15:46:14;101761.38;;;20.69;97.08
42647;BME280;31319;53.678;-6.254;2023-02-17T15:48:42;101763.44;;;20.72;97.29
42647;BME280;31319;53.678;-6.254;2023-02-17T15:51:12;101754.81;;;20.46;100.00
42647;BME280;31319;53.678;-6.254;2023-02-17T15:53:40;101751.84;;;20.55;100.00
42647;BME280;31319;53.678;-6.254;2023-02-17T15:56:17;101746.59;;;20.65;100.00
42647;BME280;31319;53.678;-6.254;2023-02-17T15:58:44;101748.75;;;20.72;100.00
42647;BME280;31319;53.678;-6.254;2023-02-17T16:01:36;101742.03;;;20.57;100.00
42647;BME280;31319;53.678;-6.254;2023-02-17T16:04:02;101747.94;;;20.71;100.00
42647;BME280;31319;53.678;-6.254;2023-02-17T16:06:28;101744.44;;;20.74;100.00
42647;BME280;31319;53.678;-6.254;2023-02-17T16:08:54;101741.66;;;20.74;100.00
42647;BME280;31319;53.678;-6.254;2023-02-17T16:11:23;101740.06;;;20.73;100.00
42647;BME280;31319;53.678;-6.254;2023-02-17T16:13:49;101749.81;;;20.67;100.00
42647;BME280;31319;53.678;-6.254;2023-02-17T16:16:22;101740.13;;;20.77;100.00
42647;BME280;31319;53.678;-6.254;2023-02-17T16:18:49;101749.00;;;20.51;100.00
42647;BME280;31319;53.678;-6.254;2023-02-17T16:21:15;101746.59;;;20.49;100.00
42647;BME280;31319;53.678;-6.254;2023-02-17T16:23:42;101737.28;;;20.58;100.00
42647;BME280;31319;53.678;-6.254;2023-02-17T16:26:27;101742.72;;;20.70;100.00
42647;BME280;31319;53.678;-6.254;2023-02-17T16:28:54;101735.56;;;20.69;100.00
42647;BME280;31319;53.678;-6.254;2023-02-17T16:31:20;101728.78;;;20.66;100.00
42647;BME280;31319;53.678;-6.254;2023-02-17T16:33:46;101727.19;;;20.37;100.00
42647;BME280;31319;53.678;-6.254;2023-02-17T16:36:18;101717.66;;;20.50;100.00
42647;BME280;31319;53.678;-6.254;2023-02-17T16:38:44;101713.00;;;20.55;100.00
42647;BME280;31319;53.678;-6.254;2023-02-17T16:41:14;101713.97;;;20.46;100.00
42647;BME280;31319;53.678;-6.254;2023-02-17T16:43:41;101710.69;;;20.29;100.00
42647;BME280;31319;53.678;-6.254;2023-02-17T16:46:17;101717.63;;;20.07;100.00
42647;BME280;31319;53.678;-6.254;2023-02-17T16:48:43;101711.84;;;20.12;100.00
42647;BME280;31319;53.678;-6.254;2023-02-17T16:51:09;101729.44;;;20.04;100.00
42647;BME280;31319;53.678;-6.254;2023-02-17T16:53:35;101722.78;;;19.92;100.00
42647;BME280;31319;53.678;-6.254;2023-02-17T16:56:08;101709.06;;;20.12;100.00
42647;BME280;31319;53.678;-6.254;2023-02-17T16:58:39;101719.44;;;20.15;100.00
42647;BME280;31319;53.678;-6.254;2023-02-17T17:01:05;101723.28;;;19.82;100.00
42647;BME280;31319;53.678;-6.254;2023-02-17T17:03:39;101722.41;;;19.66;100.00
42647;BME280;31319;53.678;-6.254;2023-02-17T17:06:25;101718.72;;;19.62;100.00
42647;BME280;31319;53.678;-6.254;2023-02-17T17:08:53;101712.50;;;19.65;100.00
42647;BME280;31319;53.678;-6.254;2023-02-17T17:11:22;101709.34;;;19.66;100.00
42647;BME280;31319;53.678;-6.254;2023-02-17T17:13:48;101713.06;;;19.58;100.00
42647;BME280;31319;53.678;-6.254;2023-02-17T17:16:18;101708.44;;;19.62;100.00
42647;BME280;31319;53.678;-6.254;2023-02-17T17:18:45;101701.28;;;19.61;100.00
42647;BME280;31319;53.678;-6.254;2023-02-17T17:21:13;101706.22;;;19.56;100.00
42647;BME280;31319;53.678;-6.254;2023-02-17T17:23:39;101721.97;;;19.52;100.00
42647;BME280;31319;53.678;-6.254;2023-02-17T17:28:40;101719.16;;;19.64;100.00
42647;BME280;31319;53.678;-6.254;2023-02-17T17:31:07;101721.50;;;19.50;100.00
42647;BME280;31319;53.678;-6.254;2023-02-17T17:33:34;101719.88;;;19.49;100.00
42647;BME280;31319;53.678;-6.254;2023-02-17T17:35:59;101719.28;;;19.55;100.00
42647;BME280;31319;53.678;-6.254;2023-02-17T17:38:25;101713.63;;;19.52;100.00
42647;BME280;31319;53.678;-6.254;2023-02-17T17:40:52;101713.78;;;19.43;100.00
42647;BME280;31319;53.678;-6.254;2023-02-17T17:43:20;101710.66;;;19.32;100.00
42647;BME280;31319;53.678;-6.254;2023-02-17T17:45:47;101708.56;;;19.41;100.00
42647;BME280;31319;53.678;-6.254;2023-02-17T17:48:14;101711.09;;;19.47;100.00
42647;BME280;31319;53.678;-6.254;2023-02-17T17:50:41;101709.97;;;19.35;100.00
42647;BME280;31319;53.678;-6.254;2023-02-17T17:53:08;101713.56;;;19.11;100.00
42647;BME280;31319;53.678;-6.254;2023-02-17T17:55:35;101707.22;;;19.23;100.00
42647;BME280;31319;53.678;-6.254;2023-02-17T17:58:01;101704.09;;;19.25;100.00
42647;BME280;31319;53.678;-6.254;2023-02-17T18:00:27;101696.13;;;19.23;100.00
42647;BME280;31319;53.678;-6.254;2023-02-17T18:02:53;101691.31;;;19.20;100.00
42647;BME280;31319;53.678;-6.254;2023-02-17T18:05:19;101692.66;;;19.26;100.00
42647;BME280;31319;53.678;-6.254;2023-02-17T18:07:46;101702.72;;;19.31;100.00
42647;BME280;31319;53.678;-6.254;2023-02-17T18:10:13;101695.09;;;19.16;100.00
42647;BME280;31319;53.678;-6.254;2023-02-17T18:12:41;101698.69;;;19.04;100.00
42647;BME280;31319;53.678;-6.254;2023-02-17T18:15:09;101704.94;;;19.01;100.00
42647;BME280;31319;53.678;-6.254;2023-02-17T18:17:37;101707.47;;;19.06;100.00
42647;BME280;31319;53.678;-6.254;2023-02-17T18:20:04;101697.56;;;18.93;100.00
42647;BME280;31319;53.678;-6.254;2023-02-17T18:22:30;101686.78;;;19.03;100.00
42647;BME280;31319;53.678;-6.254;2023-02-17T18:24:56;101689.25;;;18.93;100.00
42647;BME280;31319;53.678;-6.254;2023-02-17T18:27:21;101673.31;;;19.02;100.00
42647;BME280;31319;53.678;-6.254;2023-02-17T18:29:47;101674.91;;;19.03;100.00
42647;BME280;31319;53.678;-6.254;2023-02-17T18:32:13;101648.72;;;19.00;100.00
42647;BME280;31319;53.678;-6.254;2023-02-17T18:34:38;101667.19;;;18.96;100.00
42647;BME280;31319;53.678;-6.254;2023-02-17T18:37:04;101664.44;;;18.84;100.00
42647;BME280;31319;53.678;-6.254;2023-02-17T18:39:30;101655.44;;;18.87;100.00
42647;BME280;31319;53.678;-6.254;2023-02-17T18:41:56;101659.94;;;18.92;100.00
42647;BME280;31319;53.678;-6.254;2023-02-17T18:44:22;101649.31;;;18.94;100.00
42647;BME280;31319;53.678;-6.254;2023-02-17T18:46:47;101649.09;;;18.99;100.00
42647;BME280;31319;53.678;-6.254;2023-02-17T18:49:13;101654.16;;;18.84;100.00
42647;BME280;31319;53.678;-6.254;2023-02-17T18:51:39;101652.78;;;18.91;100.00
42647;BME280;31319;53.678;-6.254;2023-02-17T18:54:04;101655.56;;;18.91;100.00
42647;BME280;31319;53.678;-6.254;2023-02-17T18:56:35;101661.09;;;18.91;100.00
42647;BME280;31319;53.678;-6.254;2023-02-17T18:59:01;101645.38;;;18.95;100.00
42647;BME280;31319;53.678;-6.254;2023-02-17T19:01:32;101629.94;;;18.94;100.00
42647;BME280;31319;53.678;-6.254;2023-02-17T19:03:58;101633.06;;;18.92;100.00
42647;BME280;31319;53.678;-6.254;2023-02-17T19:06:27;101635.72;;;18.76;100.00
42647;BME280;31319;53.678;-6.254;2023-02-17T19:08:53;101638.03;;;18.74;100.00
42647;BME280;31319;53.678;-6.254;2023-02-17T19:11:21;101627.03;;;18.53;100.00
42647;BME280;31319;53.678;-6.254;2023-02-17T19:13:48;101620.59;;;18.74;100.00
42647;BME280;31319;53.678;-6.254;2023-02-17T19:16:17;101629.81;;;18.53;100.00
42647;BME280;31319;53.678;-6.254;2023-02-17T19:18:43;101629.25;;;18.60;100.00
42647;BME280;31319;53.678;-6.254;2023-02-17T19:21:10;101625.53;;;18.56;100.00
42647;BME280;31319;53.678;-6.254;2023-02-17T19:23:37;101630.97;;;18.52;100.00
42647;BME280;31319;53.678;-6.254;2023-02-17T19:26:04;101615.16;;;18.65;100.00
42647;BME280;31319;53.678;-6.254;2023-02-17T19:28:31;101622.31;;;18.66;100.00
42647;BME280;31319;53.678;-6.254;2023-02-17T19:30:58;101603.63;;;18.39;100.00
42647;BME280;31319;53.678;-6.254;2023-02-17T19:33:25;101616.97;;;18.24;100.00
42647;BME280;31319;53.678;-6.254;2023-02-17T19:35:51;101614.25;;;18.37;100.00
42647;BME280;31319;53.678;-6.254;2023-02-17T19:38:17;101611.59;;;18.52;100.00
42647;BME280;31319;53.678;-6.254;2023-02-17T19:40:43;101613.88;;;18.38;100.00
42647;BME280;31319;53.678;-6.254;2023-02-17T19:43:09;101615.28;;;18.44;100.00
42647;BME280;31319;53.678;-6.254;2023-02-17T19:45:35;101618.25;;;18.27;100.00
42647;BME280;31319;53.678;-6.254;2023-02-17T19:48:00;101619.16;;;18.43;100.00
42647;BME280;31319;53.678;-6.254;2023-02-17T19:50:26;101616.03;;;18.20;100.00
42647;BME280;31319;53.678;-6.254;2023-02-17T19:52:52;101623.66;;;18.23;100.00
42647;BME280;31319;53.678;-6.254;2023-02-17T19:55:18;101616.28;;;18.27;100.00
42647;BME280;31319;53.678;-6.254;2023-02-17T19:57:44;101625.13;;;18.21;100.00
42647;BME280;31319;53.678;-6.254;2023-02-17T20:00:10;101626.53;;;18.27;100.00
42647;BME280;31319;53.678;-6.254;2023-02-17T20:02:36;101608.25;;;17.89;100.00
42647;BME280;31319;53.678;-6.254;2023-02-17T20:05:02;101603.50;;;18.23;100.00
42647;BME280;31319;53.678;-6.254;2023-02-17T20:07:28;101599.34;;;18.17;100.00
42647;BME280;31319;53.678;-6.254;2023-02-17T20:09:56;101606.13;;;18.19;100.00
42647;BME280;31319;53.678;-6.254;2023-02-17T20:12:21;101607.50;;;18.01;100.00
42647;BME280;31319;53.678;-6.254;2023-02-17T20:14:47;101600.34;;;18.12;100.00
42647;BME280;31319;53.678;-6.254;2023-02-17T20:17:14;101603.84;;;18.34;100.00
42647;BME280;31319;53.678;-6.254;2023-02-17T20:19:40;101601.53;;;18.36;100.00
42647;BME280;31319;53.678;-6.254;2023-02-17T20:22:06;101609.41;;;18.46;100.00
42647;BME280;31319;53.678;-6.254;2023-02-17T20:24:33;101597.16;;;18.22;100.00
42647;BME280;31319;53.678;-6.254;2023-02-17T20:26:59;101590.72;;;18.30;100.00
42647;BME280;31319;53.678;-6.254;2023-02-17T20:29:25;101597.06;;;18.31;100.00
42647;BME280;31319;53.678;-6.254;2023-02-17T20:31:51;101592.91;;;18.49;100.00
42647;BME280;31319;53.678;-6.254;2023-02-17T20:34:32;101587.13;;;18.30;100.00
42647;BME280;31319;53.678;-6.254;2023-02-17T20:36:59;101573.19;;;18.39;100.00
42647;BME280;31319;53.678;-6.254;2023-02-17T20:39:27;101597.97;;;18.35;100.00
42647;BME280;31319;53.678;-6.254;2023-02-17T20:41:54;101595.91;;;18.32;100.00
42647;BME280;31319;53.678;-6.254;2023-02-17T20:44:20;101580.81;;;18.29;100.00
42647;BME280;31319;53.678;-6.254;2023-02-17T20:46:46;101606.97;;;18.32;100.00
42647;BME280;31319;53.678;-6.254;2023-02-17T20:49:12;101593.91;;;18.20;100.00
42647;BME280;31319;53.678;-6.254;2023-02-17T20:51:39;101598.31;;;18.34;100.00
42647;BME280;31319;53.678;-6.254;2023-02-17T20:54:05;101583.25;;;17.86;100.00
42647;BME280;31319;53.678;-6.254;2023-02-17T20:56:33;101590.69;;;18.43;100.00
42647;BME280;31319;53.678;-6.254;2023-02-17T20:59:00;101588.66;;;18.52;100.00
42647;BME280;31319;53.678;-6.254;2023-02-17T21:01:26;101583.34;;;18.47;100.00